Terminal Aerodrome Forecast
Issued by NWS

Home | Current Version | Previous Version | Graphics & Text | Print | Product List | Glossary On
Versions: 1 2 3 4 5 6 7 8 9 10 11 12 13 14 15 16
232
FTUS43 KIWX 130540
TAFSBN
TAF
KSBN 130540Z 1306/1406 24008KT P6SM BKN040
     FM131400 17013G20KT P6SM VCSH OVC060
     FM132100 22011KT 6SM -SN OVC035
     FM132300 30008KT 6SM -SN OVC025
     FM140100 33009KT 4SM -SHSN OVC015
     FM140400 36010KT 6SM -SHSN BKN030=

USA.gov is the U.S. government's official web portal to all federal, state and local government web resources and services.